createdAt,value
2023-01-19T00:00:52.449Z,68.17
2023-01-19T00:03:18.943Z,68.41
2023-01-19T00:05:46.505Z,68.23
2023-01-19T00:08:16.619Z,67.91
2023-01-19T00:10:49.249Z,67.60
2023-01-19T00:13:15.951Z,67.79
2023-01-19T00:15:43.326Z,67.69
2023-01-19T00:18:11.148Z,67.91
2023-01-19T00:20:39.467Z,67.86
2023-01-19T00:23:07.845Z,67.82
2023-01-19T00:25:34.792Z,67.49
2023-01-19T00:28:01.889Z,67.36
2023-01-19T00:30:28.732Z,67.34
2023-01-19T00:32:55.986Z,67.34
2023-01-19T00:35:22.492Z,67.36
2023-01-19T00:37:49.067Z,67.95
2023-01-19T00:40:15.645Z,67.74
2023-01-19T00:42:44.253Z,67.78
2023-01-19T00:45:14.919Z,67.46
2023-01-19T00:47:41.715Z,67.32
2023-01-19T00:50:11.720Z,67.45
2023-01-19T00:52:40.059Z,67.24
2023-01-19T00:55:13.618Z,67.03
2023-01-19T00:57:41.181Z,67.10
2023-01-19T01:00:14.433Z,67.89
2023-01-19T01:02:43.863Z,68.21
2023-01-19T01:05:11.972Z,67.93
2023-01-19T01:07:45.033Z,68.02
2023-01-19T01:10:19.742Z,68.13
2023-01-19T01:12:57.354Z,67.85
2023-01-19T01:15:27.787Z,67.63
2023-01-19T01:17:55.105Z,67.16
2023-01-19T01:23:04.990Z,67.47
2023-01-19T01:25:33.939Z,67.28
2023-01-19T01:28:00.477Z,67.55
2023-01-19T01:30:27.013Z,67.57
2023-01-19T01:32:53.438Z,67.30
2023-01-19T01:35:19.879Z,67.35
2023-01-19T01:37:46.349Z,67.29
2023-01-19T01:40:17.227Z,67.48
2023-01-19T01:42:44.071Z,67.75
2023-01-19T01:45:30.687Z,67.65
2023-01-19T01:48:09.722Z,67.45
2023-01-19T01:51:04.569Z,67.41
2023-01-19T01:53:35.671Z,67.23
2023-01-19T01:56:12.246Z,67.19
2023-01-19T01:58:39.569Z,67.58
2023-01-19T02:01:26.468Z,67.75
2023-01-19T02:03:57.184Z,67.86
2023-01-19T02:06:24.629Z,67.87
2023-01-19T02:09:21.694Z,67.51
2023-01-19T02:12:07.990Z,67.43
2023-01-19T02:14:39.168Z,67.51
2023-01-19T02:17:07.196Z,67.20
2023-01-19T02:19:43.553Z,67.07
2023-01-19T02:22:23.134Z,66.78
2023-01-19T02:24:50.015Z,67.38
2023-01-19T02:27:17.613Z,67.47
2023-01-19T02:29:44.591Z,67.44
2023-01-19T02:32:11.485Z,67.20
2023-01-19T02:34:38.024Z,67.02
2023-01-19T02:37:12.090Z,66.95
2023-01-19T02:39:50.708Z,67.05
2023-01-19T02:42:32.558Z,67.19
2023-01-19T02:44:59.669Z,67.09
2023-01-19T02:47:26.290Z,67.34
2023-01-19T02:49:58.475Z,67.12
2023-01-19T02:52:26.863Z,67.08
2023-01-19T02:55:16.600Z,66.69
2023-01-19T02:58:06.467Z,66.26
2023-01-19T03:01:15.793Z,66.50
2023-01-19T03:04:04.354Z,67.22
2023-01-19T03:06:46.359Z,67.39
2023-01-19T03:09:35.249Z,67.17
2023-01-19T03:12:22.039Z,67.35
2023-01-19T03:14:49.057Z,67.40
2023-01-19T03:17:19.010Z,67.58
2023-01-19T03:19:49.354Z,67.16
2023-01-19T03:22:27.089Z,67.26
2023-01-19T03:24:59.536Z,67.14
2023-01-19T03:27:40.658Z,66.89
2023-01-19T03:30:24.132Z,66.84
2023-01-19T03:33:07.863Z,66.99
2023-01-19T03:35:40.258Z,67.33
2023-01-19T03:38:15.441Z,67.23
2023-01-19T03:40:43.708Z,67.39
2023-01-19T03:43:11.246Z,67.22
2023-01-19T03:45:39.291Z,67.75
2023-01-19T03:48:07.089Z,67.63
2023-01-19T03:50:33.812Z,68.08
2023-01-19T03:53:14.396Z,67.77
2023-01-19T03:55:47.231Z,67.40
2023-01-19T03:58:14.137Z,67.13
2023-01-19T04:00:41.452Z,66.91
2023-01-19T04:03:15.071Z,66.95
2023-01-19T04:05:42.507Z,67.16
2023-01-19T04:08:09.217Z,67.28
2023-01-19T04:10:36.423Z,67.15
2023-01-19T04:13:04.089Z,66.81
2023-01-19T04:15:31.869Z,66.84
2023-01-19T04:18:01.743Z,66.85
2023-01-19T04:20:29.175Z,66.61
2023-01-19T04:23:00.546Z,66.84
2023-01-19T04:25:28.367Z,66.99
2023-01-19T04:27:55.561Z,67.28
2023-01-19T04:30:22.554Z,67.07
2023-01-19T04:32:49.293Z,67.13
2023-01-19T04:35:16.899Z,67.10
2023-01-19T04:37:44.890Z,66.84
2023-01-19T04:40:12.306Z,66.70
2023-01-19T04:42:39.232Z,66.54
2023-01-19T04:45:06.326Z,66.65
2023-01-19T04:47:32.887Z,66.74
2023-01-19T04:49:59.369Z,66.55
2023-01-19T04:52:34.756Z,66.56
2023-01-19T04:55:03.561Z,66.82
2023-01-19T04:57:30.308Z,67.26
2023-01-19T04:59:57.747Z,67.23
2023-01-19T05:02:25.275Z,67.45
2023-01-19T05:04:52.011Z,67.55
2023-01-19T05:07:18.705Z,67.37
2023-01-19T05:09:45.213Z,67.07
2023-01-19T05:12:11.737Z,66.73
2023-01-19T05:14:38.742Z,66.82
2023-01-19T05:17:05.335Z,66.68
2023-01-19T05:19:31.832Z,66.95
2023-01-19T05:21:58.326Z,66.91
2023-01-19T05:24:24.814Z,66.89
2023-01-19T05:26:51.262Z,66.71
2023-01-19T05:29:17.686Z,66.97
2023-01-19T05:31:44.238Z,66.39
2023-01-19T05:34:11.887Z,66.76
2023-01-19T05:36:38.831Z,66.54
2023-01-19T05:39:05.453Z,66.67
2023-01-19T05:41:32.154Z,66.50
2023-01-19T05:43:58.641Z,67.10
2023-01-19T05:46:25.257Z,66.97
2023-01-19T05:48:51.802Z,66.94
2023-01-19T05:51:18.323Z,66.97
2023-01-19T05:53:44.798Z,66.83
2023-01-19T05:56:11.297Z,66.95
2023-01-19T05:58:41.538Z,66.92
2023-01-19T06:01:10.256Z,66.91
2023-01-19T06:03:37.329Z,66.97
2023-01-19T06:06:04.433Z,66.98
2023-01-19T06:08:31.364Z,67.22
2023-01-19T06:10:57.889Z,67.42
2023-01-19T06:13:24.391Z,67.17
2023-01-19T06:16:01.002Z,67.08
2023-01-19T06:18:27.833Z,67.61
2023-01-19T06:21:00.462Z,67.82
2023-01-19T06:23:30.673Z,67.67
2023-01-19T06:25:57.339Z,67.43
2023-01-19T06:28:25.088Z,67.45
2023-01-19T06:30:54.938Z,67.63
2023-01-19T06:33:23.988Z,67.76
2023-01-19T06:35:51.700Z,68.04
2023-01-19T06:38:19.330Z,68.27
2023-01-19T06:40:53.512Z,67.92
2023-01-19T06:43:20.803Z,68.49
2023-01-19T06:45:48.133Z,68.64
2023-01-19T06:48:14.656Z,68.56
2023-01-19T06:50:41.466Z,68.32
2023-01-19T06:53:07.967Z,68.40
2023-01-19T06:55:36.356Z,67.92
2023-01-19T06:58:02.987Z,68.45
2023-01-19T07:00:29.553Z,68.70
2023-01-19T07:02:56.435Z,68.53
2023-01-19T07:05:22.991Z,68.76
2023-01-19T07:07:56.025Z,68.59
2023-01-19T07:10:24.554Z,68.68
2023-01-19T07:12:51.708Z,68.90
2023-01-19T07:15:21.683Z,68.96
2023-01-19T07:17:48.973Z,69.17
2023-01-19T07:20:17.354Z,69.37
2023-01-19T07:22:46.528Z,69.42
2023-01-19T07:25:14.800Z,69.27
2023-01-19T07:27:41.406Z,69.22
2023-01-19T07:30:09.129Z,68.83
2023-01-19T07:32:35.976Z,69.10
2023-01-19T07:35:03.257Z,69.11
2023-01-19T07:37:30.158Z,68.83
2023-01-19T07:39:56.666Z,69.25
2023-01-19T07:42:23.175Z,68.84
2023-01-19T07:44:49.737Z,69.12
2023-01-19T07:47:16.266Z,69.36
2023-01-19T07:49:42.824Z,69.23
2023-01-19T07:52:09.864Z,69.18
2023-01-19T07:54:36.433Z,69.41
2023-01-19T07:57:02.960Z,69.54
2023-01-19T07:59:31.029Z,69.34
2023-01-19T08:01:59.356Z,69.20
2023-01-19T08:04:27.580Z,69.22
2023-01-19T08:06:55.978Z,69.09
2023-01-19T08:09:23.032Z,69.57
2023-01-19T08:11:49.510Z,69.77
2023-01-19T08:14:16.065Z,69.85
2023-01-19T08:16:42.587Z,70.12
2023-01-19T08:19:09.068Z,70.12
2023-01-19T08:21:36.462Z,70.19
2023-01-19T08:24:03.125Z,69.89
2023-01-19T08:26:33.547Z,70.14
2023-01-19T08:29:03.702Z,70.05
2023-01-19T08:31:31.544Z,70.29
2023-01-19T08:33:58.923Z,70.05
2023-01-19T08:36:25.726Z,70.42
2023-01-19T08:38:52.590Z,70.30
2023-01-19T08:41:19.157Z,70.43
2023-01-19T08:43:45.638Z,69.93
2023-01-19T08:46:12.718Z,70.18
2023-01-19T08:48:40.113Z,70.45
2023-01-19T08:51:06.803Z,70.55
2023-01-19T08:53:34.111Z,70.26
2023-01-19T08:56:01.254Z,70.04
2023-01-19T08:58:28.591Z,70.29
2023-01-19T09:00:55.917Z,70.08
2023-01-19T09:03:22.795Z,70.11
2023-01-19T09:05:50.289Z,70.19
2023-01-19T09:08:17.403Z,69.88
2023-01-19T09:10:50.385Z,69.88
2023-01-19T09:13:20.319Z,69.72
2023-01-19T09:15:47.419Z,69.78
2023-01-19T09:18:17.891Z,69.36
2023-01-19T09:20:47.194Z,69.30
2023-01-19T09:23:17.748Z,69.61
2023-01-19T09:25:47.129Z,69.37
2023-01-19T09:28:17.472Z,69.40
2023-01-19T09:30:44.951Z,69.20
2023-01-19T09:33:15.116Z,68.54
2023-01-19T09:35:42.985Z,68.51
2023-01-19T09:38:10.840Z,68.88
2023-01-19T09:40:44.739Z,68.98
2023-01-19T09:43:16.991Z,69.20
2023-01-19T09:45:58.323Z,69.62
2023-01-19T09:48:30.838Z,69.53
2023-01-19T09:51:04.354Z,69.89
2023-01-19T09:53:40.421Z,69.78
2023-01-19T09:56:14.360Z,69.82
2023-01-19T09:58:42.219Z,69.57
2023-01-19T10:01:42.445Z,69.52
2023-01-19T10:04:29.138Z,69.66
2023-01-19T10:07:09.827Z,69.50
2023-01-19T10:10:03.239Z,70.03
2023-01-19T10:12:50.944Z,70.17
2023-01-19T10:16:00.668Z,69.91
2023-01-19T10:18:45.800Z,70.01
2023-01-19T10:21:20.282Z,69.97
2023-01-19T10:23:57.636Z,70.38
2023-01-19T10:26:34.303Z,70.24
2023-01-19T10:29:07.867Z,70.20
2023-01-19T10:31:39.614Z,70.69
2023-01-19T10:34:06.246Z,70.51
2023-01-19T10:36:39.601Z,70.36
2023-01-19T10:39:08.071Z,69.93
2023-01-19T10:41:44.924Z,69.85
2023-01-19T10:44:12.031Z,69.98
2023-01-19T10:46:45.620Z,69.65
2023-01-19T10:49:40.044Z,69.48
2023-01-19T10:52:19.114Z,69.38
2023-01-19T10:54:48.396Z,69.65
2023-01-19T10:57:28.582Z,69.32
2023-01-19T10:59:55.249Z,69.22
2023-01-19T11:02:30.972Z,69.19
2023-01-19T11:05:23.272Z,69.36
2023-01-19T11:07:49.854Z,69.49
2023-01-19T11:10:16.256Z,69.59
2023-01-19T11:13:12.274Z,69.27
2023-01-19T11:16:04.904Z,69.15
2023-01-19T11:18:38.307Z,69.31
2023-01-19T11:21:09.716Z,68.85
2023-01-19T11:23:46.262Z,69.16
2023-01-19T11:26:26.317Z,69.27
2023-01-19T11:28:56.320Z,68.82
2023-01-19T11:31:28.583Z,69.16
2023-01-19T11:33:58.941Z,68.93
2023-01-19T11:36:32.253Z,68.94
2023-01-19T11:39:23.635Z,69.34
2023-01-19T11:41:58.676Z,69.24
2023-01-19T11:44:39.086Z,69.12
2023-01-19T11:47:18.420Z,69.38
2023-01-19T11:50:03.747Z,68.95
2023-01-19T11:52:43.207Z,68.74
2023-01-19T11:55:22.308Z,69.41
2023-01-19T11:57:54.512Z,69.13
2023-01-19T12:00:42.854Z,69.13
2023-01-19T12:03:37.101Z,68.68
2023-01-19T12:06:16.796Z,68.46
2023-01-19T12:09:12.824Z,68.88
2023-01-19T12:11:55.264Z,69.45
2023-01-19T12:14:31.993Z,69.18
2023-01-19T12:17:02.955Z,69.23
2023-01-19T12:19:46.258Z,69.51
2023-01-19T12:22:19.304Z,69.33
2023-01-19T12:25:27.110Z,69.53
2023-01-19T12:27:54.238Z,69.23
2023-01-19T12:30:27.979Z,68.70
2023-01-19T12:33:26.691Z,69.04
2023-01-19T12:36:02.889Z,69.45
2023-01-19T12:38:42.030Z,68.84
2023-01-19T12:41:34.407Z,69.26
2023-01-19T12:44:10.743Z,69.45
2023-01-19T12:46:39.311Z,69.39
2023-01-19T12:49:17.875Z,68.80
2023-01-19T12:51:45.685Z,68.78
2023-01-19T12:54:31.384Z,68.79
2023-01-19T12:57:16.476Z,69.50
2023-01-19T12:59:43.347Z,69.32
2023-01-19T13:02:25.320Z,69.53
2023-01-19T13:05:11.472Z,69.10
2023-01-19T13:08:02.942Z,69.20
2023-01-19T13:11:00.358Z,69.03
2023-01-19T13:13:32.478Z,69.45
2023-01-19T13:16:19.403Z,69.65
2023-01-19T13:19:06.155Z,69.39
2023-01-19T13:21:36.618Z,69.88
2023-01-19T13:24:23.664Z,69.42
2023-01-19T13:26:50.076Z,69.59
2023-01-19T13:29:33.736Z,69.49
2023-01-19T13:32:04.674Z,68.96
2023-01-19T13:34:42.350Z,68.69
2023-01-19T13:37:20.267Z,69.18
2023-01-19T13:39:51.434Z,68.62
2023-01-19T13:42:34.156Z,68.82
2023-01-19T13:45:24.408Z,69.00
2023-01-19T13:47:53.315Z,69.53
2023-01-19T13:50:23.692Z,70.37
2023-01-19T13:52:53.782Z,70.53
2023-01-19T13:55:21.294Z,69.65
2023-01-19T13:57:50.523Z,69.83
2023-01-19T14:00:29.790Z,68.55
2023-01-19T14:03:11.375Z,69.03
2023-01-19T14:05:41.644Z,68.97
2023-01-19T14:08:08.054Z,69.28
2023-01-19T14:10:59.838Z,70.05
2023-01-19T14:13:30.818Z,71.09
2023-01-19T14:16:08.059Z,70.84
2023-01-19T14:18:36.499Z,70.39
2023-01-19T14:21:14.401Z,69.69
2023-01-19T14:23:48.279Z,70.27
2023-01-19T14:26:54.616Z,70.25
2023-01-19T14:29:33.382Z,70.79
2023-01-19T14:32:17.178Z,71.81
2023-01-19T14:35:14.646Z,71.56
2023-01-19T14:37:50.813Z,70.68
2023-01-19T14:40:21.419Z,70.43
2023-01-19T14:43:00.484Z,69.86
2023-01-19T14:45:34.972Z,70.04
2023-01-19T14:48:18.431Z,69.66
2023-01-19T14:51:01.914Z,69.68
2023-01-19T14:53:48.274Z,69.36
2023-01-19T14:56:30.394Z,69.30
2023-01-19T14:58:59.575Z,68.76
2023-01-19T15:01:28.546Z,69.46
2023-01-19T15:03:58.407Z,70.05
2023-01-19T15:06:26.667Z,70.22
2023-01-19T15:08:54.235Z,70.21
2023-01-19T15:11:31.014Z,69.45
2023-01-19T15:13:59.044Z,68.54
2023-01-19T15:16:27.592Z,69.05
2023-01-19T15:18:54.540Z,68.84
2023-01-19T15:21:28.801Z,68.59
2023-01-19T15:23:55.563Z,68.65
2023-01-19T15:26:25.999Z,68.16
2023-01-19T15:28:53.459Z,68.52
2023-01-19T15:31:23.075Z,68.09
2023-01-19T15:33:49.921Z,68.16
2023-01-19T15:36:21.932Z,68.60
2023-01-19T15:38:50.896Z,69.37
2023-01-19T15:41:31.463Z,69.50
2023-01-19T15:43:58.958Z,70.24
2023-01-19T15:46:26.206Z,70.37
2023-01-19T15:48:54.152Z,70.48
2023-01-19T15:51:25.054Z,69.74
2023-01-19T15:53:52.843Z,70.29
2023-01-19T15:56:25.861Z,69.98
2023-01-19T15:58:54.683Z,70.35
2023-01-19T16:01:31.033Z,69.96
2023-01-19T16:04:09.467Z,70.49
2023-01-19T16:06:35.958Z,70.85
2023-01-19T16:09:03.859Z,70.50
2023-01-19T16:11:35.323Z,69.98
2023-01-19T16:14:02.304Z,69.60
2023-01-19T16:16:29.233Z,69.22
2023-01-19T16:18:56.556Z,68.96
2023-01-19T16:21:23.902Z,69.19
2023-01-19T16:23:51.224Z,69.56
2023-01-19T16:26:35.188Z,69.61
2023-01-19T16:29:09.870Z,70.22
2023-01-19T16:31:42.254Z,69.70
2023-01-19T16:34:09.647Z,69.32
2023-01-19T16:36:42.933Z,69.47
2023-01-19T16:39:14.038Z,69.42
2023-01-19T16:41:41.765Z,69.71
2023-01-19T16:44:11.225Z,68.49
2023-01-19T16:46:41.609Z,69.35
2023-01-19T16:49:22.751Z,69.05
2023-01-19T16:51:50.661Z,69.14
2023-01-19T16:54:25.839Z,68.52
2023-01-19T16:56:53.883Z,68.82
2023-01-19T16:59:22.292Z,69.09
2023-01-19T17:01:50.988Z,69.85
2023-01-19T17:04:19.511Z,70.69
2023-01-19T17:06:49.935Z,70.21
2023-01-19T17:09:17.286Z,70.45
2023-01-19T17:11:44.178Z,69.98
2023-01-19T17:14:20.199Z,70.17
2023-01-19T17:16:47.902Z,70.29
2023-01-19T17:19:18.453Z,69.64
2023-01-19T17:21:48.618Z,69.57
2023-01-19T17:24:16.362Z,69.92
2023-01-19T17:26:45.729Z,69.57
2023-01-19T17:29:12.716Z,69.66
2023-01-19T17:31:39.194Z,69.22
2023-01-19T17:34:06.575Z,69.07
2023-01-19T17:36:33.754Z,69.60
2023-01-19T17:39:08.834Z,69.49
2023-01-19T17:41:36.113Z,69.48
2023-01-19T17:44:05.210Z,69.08
2023-01-19T17:46:35.809Z,68.60
2023-01-19T17:49:06.655Z,68.81
2023-01-19T17:51:33.680Z,68.94
2023-01-19T17:54:00.294Z,68.66
2023-01-19T17:56:32.914Z,68.67
2023-01-19T17:58:59.675Z,69.19
2023-01-19T18:01:32.131Z,68.77
2023-01-19T18:04:01.013Z,68.88
2023-01-19T18:06:27.538Z,68.88
2023-01-19T18:08:54.107Z,68.76
2023-01-19T18:11:22.028Z,69.13
2023-01-19T18:13:50.069Z,69.78
2023-01-19T18:16:22.005Z,69.41
2023-01-19T18:18:53.461Z,69.33
2023-01-19T18:21:21.991Z,69.70
2023-01-19T18:23:50.523Z,70.47
2023-01-19T18:26:21.476Z,70.10
2023-01-19T18:28:49.002Z,69.88
2023-01-19T18:31:18.823Z,69.53
2023-01-19T18:33:48.377Z,69.80
2023-01-19T18:36:15.967Z,70.15
2023-01-19T18:38:42.800Z,70.58
2023-01-19T18:41:18.384Z,69.87
2023-01-19T18:43:46.529Z,70.06
2023-01-19T18:46:14.502Z,69.97
2023-01-19T18:48:41.274Z,70.13
2023-01-19T18:51:11.830Z,69.67
2023-01-19T18:53:38.991Z,70.01
2023-01-19T18:56:07.246Z,69.71
2023-01-19T18:58:38.005Z,69.61
2023-01-19T19:01:17.715Z,69.61
2023-01-19T19:03:44.359Z,68.98
2023-01-19T19:06:13.702Z,68.85
2023-01-19T19:08:40.339Z,69.05
2023-01-19T19:11:08.329Z,69.34
2023-01-19T19:13:35.221Z,69.08
2023-01-19T19:16:07.242Z,69.18
2023-01-19T19:18:36.883Z,69.29
2023-01-19T19:21:09.322Z,69.66
2023-01-19T19:23:37.643Z,69.82
2023-01-19T19:26:11.619Z,69.52
2023-01-19T19:28:40.381Z,69.67
2023-01-19T19:31:11.586Z,69.03
2023-01-19T19:33:39.568Z,68.93
2023-01-19T19:36:07.681Z,68.65
2023-01-19T19:38:36.619Z,68.26
2023-01-19T19:41:12.496Z,68.57
2023-01-19T19:43:39.473Z,68.75
2023-01-19T19:46:12.542Z,68.43
2023-01-19T19:48:40.071Z,68.29
2023-01-19T19:51:17.736Z,67.88
2023-01-19T19:53:45.078Z,68.12
2023-01-19T19:56:13.163Z,67.94
2023-01-19T19:58:41.924Z,68.41
2023-01-19T20:01:15.888Z,68.38
2023-01-19T20:03:43.602Z,68.61
2023-01-19T20:06:14.884Z,69.10
2023-01-19T20:08:41.773Z,69.65
2023-01-19T20:11:10.895Z,69.13
2023-01-19T20:13:40.212Z,69.25
2023-01-19T20:16:11.620Z,68.55
2023-01-19T20:18:44.129Z,69.01
2023-01-19T20:21:20.555Z,69.41
2023-01-19T20:23:48.595Z,69.28
2023-01-19T20:26:18.826Z,69.73
2023-01-19T20:28:45.348Z,69.48
2023-01-19T20:31:26.502Z,69.47
2023-01-19T20:33:55.682Z,70.38
2023-01-19T20:36:24.227Z,70.25
2023-01-19T20:38:53.679Z,70.12
2023-01-19T20:41:22.199Z,70.42
2023-01-19T20:43:49.240Z,70.94
2023-01-19T20:46:16.236Z,70.77
2023-01-19T20:48:42.830Z,70.77
2023-01-19T20:51:13.212Z,70.00
2023-01-19T20:53:41.321Z,70.09
2023-01-19T20:56:12.404Z,69.86
2023-01-19T20:58:39.560Z,69.87
2023-01-19T21:01:21.799Z,69.90
2023-01-19T21:03:49.359Z,70.54
2023-01-19T21:06:16.528Z,70.52
2023-01-19T21:08:43.834Z,70.42
2023-01-19T21:11:11.560Z,70.21
2023-01-19T21:13:38.070Z,69.91
2023-01-19T21:16:05.551Z,69.70
2023-01-19T21:18:32.233Z,69.26
2023-01-19T21:20:58.772Z,69.27
2023-01-19T21:23:27.535Z,69.27
2023-01-19T21:25:57.642Z,69.35
2023-01-19T21:28:26.642Z,69.02
2023-01-19T21:30:54.874Z,68.83
2023-01-19T21:33:23.287Z,68.94
2023-01-19T21:35:56.184Z,68.95
2023-01-19T21:38:29.293Z,68.74
2023-01-19T21:40:57.903Z,69.08
2023-01-19T21:43:26.494Z,69.69
2023-01-19T21:45:53.115Z,70.03
2023-01-19T21:48:19.848Z,69.98
2023-01-19T21:50:46.557Z,70.42
2023-01-19T21:53:13.502Z,69.98
2023-01-19T21:55:45.494Z,69.40
2023-01-19T21:58:12.016Z,69.37
2023-01-19T22:00:38.557Z,68.80
2023-01-19T22:03:05.207Z,68.27
2023-01-19T22:05:37.101Z,67.78
2023-01-19T22:08:06.264Z,67.77
2023-01-19T22:10:37.096Z,67.10
2023-01-19T22:13:03.739Z,67.03
2023-01-19T22:15:31.312Z,66.99
2023-01-19T22:17:57.801Z,66.78
2023-01-19T22:20:24.341Z,66.77
2023-01-19T22:22:50.808Z,66.50
2023-01-19T22:25:17.292Z,66.53
2023-01-19T22:27:43.819Z,66.63
2023-01-19T22:30:10.874Z,66.71
2023-01-19T22:32:37.361Z,66.82
2023-01-19T22:35:04.183Z,66.46
2023-01-19T22:37:36.389Z,66.30
2023-01-19T22:40:04.854Z,66.59
2023-01-19T22:42:31.329Z,66.36
2023-01-19T22:44:57.807Z,66.14
2023-01-19T22:47:24.338Z,65.89
2023-01-19T22:49:50.807Z,66.23
2023-01-19T22:52:17.287Z,65.92
2023-01-19T22:54:43.779Z,65.86
2023-01-19T22:57:11.832Z,66.15
2023-01-19T22:59:38.346Z,67.33
2023-01-19T23:02:04.864Z,67.63
2023-01-19T23:04:31.460Z,67.79
2023-01-19T23:06:57.899Z,67.63
2023-01-19T23:09:24.370Z,67.23
2023-01-19T23:11:51.289Z,66.86
2023-01-19T23:14:21.858Z,66.70
2023-01-19T23:16:48.586Z,66.60
2023-01-19T23:19:17.270Z,67.12
2023-01-19T23:21:45.135Z,67.34
2023-01-19T23:24:12.275Z,66.48
2023-01-19T23:26:38.956Z,66.58
2023-01-19T23:29:11.832Z,66.23
2023-01-19T23:31:42.423Z,67.07
2023-01-19T23:34:11.978Z,67.24
2023-01-19T23:36:40.867Z,67.03
2023-01-19T23:39:14.671Z,66.90
2023-01-19T23:41:41.347Z,66.56
2023-01-19T23:44:08.308Z,66.37
2023-01-19T23:46:35.006Z,66.39
2023-01-19T23:49:01.560Z,66.31
2023-01-19T23:51:31.096Z,66.58
2023-01-19T23:53:59.320Z,66.36
2023-01-19T23:56:29.596Z,66.68
2023-01-19T23:59:05.334Z,66.42
